sensor_id;sensor_type;location;lat;lon;timestamp;temperature;humidity
68251;DHT22;55066;51.560;4.642;2024-01-15T00:00:39;1.01;99.99
68251;DHT22;55066;51.560;4.642;2024-01-15T00:03:05;0.83;99.99
68251;DHT22;55066;51.560;4.642;2024-01-15T00:05:31;0.90;99.99
68251;DHT22;55066;51.560;4.642;2024-01-15T00:07:56;0.94;99.99
68251;DHT22;55066;51.560;4.642;2024-01-15T00:10:23;1.02;99.99
68251;DHT22;55066;51.560;4.642;2024-01-15T00:12:48;1.04;99.99
68251;DHT22;55066;51.560;4.642;2024-01-15T00:15:14;1.09;99.99
68251;DHT22;55066;51.560;4.642;2024-01-15T00:17:40;1.28;99.99
68251;DHT22;55066;51.560;4.642;2024-01-15T00:20:06;1.39;99.99
68251;DHT22;55066;51.560;4.642;2024-01-15T00:22:31;1.39;99.99
68251;DHT22;55066;51.560;4.642;2024-01-15T00:24:57;1.43;99.99
68251;DHT22;55066;51.560;4.642;2024-01-15T00:27:23;1.52;99.99
68251;DHT22;55066;51.560;4.642;2024-01-15T00:29:49;1.52;99.99
68251;DHT22;55066;51.560;4.642;2024-01-15T00:32:15;1.46;99.99
68251;DHT22;55066;51.560;4.642;2024-01-15T00:34:41;1.53;99.99
68251;DHT22;55066;51.560;4.642;2024-01-15T00:37:06;1.56;99.99
68251;DHT22;55066;51.560;4.642;2024-01-15T00:39:32;1.66;99.99
68251;DHT22;55066;51.560;4.642;2024-01-15T00:41:58;1.70;99.99
68251;DHT22;55066;51.560;4.642;2024-01-15T00:44:23;1.59;99.99
68251;DHT22;55066;51.560;4.642;2024-01-15T00:46:49;1.64;99.99
68251;DHT22;55066;51.560;4.642;2024-01-15T00:49:14;1.49;99.99
68251;DHT22;55066;51.560;4.642;2024-01-15T00:51:40;1.55;99.99
68251;DHT22;55066;51.560;4.642;2024-01-15T00:54:06;1.45;99.99
68251;DHT22;55066;51.560;4.642;2024-01-15T00:56:31;1.28;99.99
68251;DHT22;55066;51.560;4.642;2024-01-15T00:58:58;1.27;99.99
68251;DHT22;55066;51.560;4.642;2024-01-15T01:01:23;1.12;99.99
68251;DHT22;55066;51.560;4.642;2024-01-15T01:03:48;1.05;99.99
68251;DHT22;55066;51.560;4.642;2024-01-15T01:06:14;0.91;99.99
68251;DHT22;55066;51.560;4.642;2024-01-15T01:08:39;0.77;99.99
68251;DHT22;55066;51.560;4.642;2024-01-15T01:11:05;0.74;99.99
68251;DHT22;55066;51.560;4.642;2024-01-15T01:13:32;0.69;99.99
68251;DHT22;55066;51.560;4.642;2024-01-15T01:15:58;0.66;99.99
68251;DHT22;55066;51.560;4.642;2024-01-15T01:18:23;0.62;99.99
68251;DHT22;55066;51.560;4.642;2024-01-15T01:20:49;0.64;99.99
68251;DHT22;55066;51.560;4.642;2024-01-15T01:23:14;0.70;99.99
68251;DHT22;55066;51.560;4.642;2024-01-15T01:25:40;0.81;99.99
68251;DHT22;55066;51.560;4.642;2024-01-15T01:28:05;0.94;99.99
68251;DHT22;55066;51.560;4.642;2024-01-15T01:30:30;0.97;99.99
68251;DHT22;55066;51.560;4.642;2024-01-15T01:32:56;1.00;99.99
68251;DHT22;55066;51.560;4.642;2024-01-15T01:35:22;0.85;99.99
68251;DHT22;55066;51.560;4.642;2024-01-15T01:37:47;0.77;99.99
68251;DHT22;55066;51.560;4.642;2024-01-15T01:40:13;0.66;99.99
68251;DHT22;55066;51.560;4.642;2024-01-15T01:42:38;0.56;99.99
68251;DHT22;55066;51.560;4.642;2024-01-15T01:45:04;0.45;99.99
68251;DHT22;55066;51.560;4.642;2024-01-15T01:47:30;0.42;99.99
68251;DHT22;55066;51.560;4.642;2024-01-15T01:49:56;0.42;99.99
68251;DHT22;55066;51.560;4.642;2024-01-15T01:52:21;0.39;99.99
68251;DHT22;55066;51.560;4.642;2024-01-15T01:54:47;0.35;99.99
68251;DHT22;55066;51.560;4.642;2024-01-15T01:57:13;0.25;99.99
68251;DHT22;55066;51.560;4.642;2024-01-15T01:59:40;0.29;99.99
68251;DHT22;55066;51.560;4.642;2024-01-15T02:02:06;0.26;99.99
68251;DHT22;55066;51.560;4.642;2024-01-15T02:04:32;0.18;99.99
68251;DHT22;55066;51.560;4.642;2024-01-15T02:06:59;0.15;99.99
68251;DHT22;55066;51.560;4.642;2024-01-15T02:09:24;0.08;99.99
68251;DHT22;55066;51.560;4.642;2024-01-15T02:11:50;0.08;99.99
68251;DHT22;55066;51.560;4.642;2024-01-15T02:14:16;0.14;99.99
68251;DHT22;55066;51.560;4.642;2024-01-15T02:16:41;0.11;99.99
68251;DHT22;55066;51.560;4.642;2024-01-15T02:19:07;0.28;99.99
68251;DHT22;55066;51.560;4.642;2024-01-15T02:21:32;0.38;99.99
68251;DHT22;55066;51.560;4.642;2024-01-15T02:23:58;0.46;99.99
68251;DHT22;55066;51.560;4.642;2024-01-15T02:26:24;0.66;99.99
68251;DHT22;55066;51.560;4.642;2024-01-15T02:28:50;0.84;99.99
68251;DHT22;55066;51.560;4.642;2024-01-15T02:31:16;0.83;99.99
68251;DHT22;55066;51.560;4.642;2024-01-15T02:33:42;1.04;99.99
68251;DHT22;55066;51.560;4.642;2024-01-15T02:36:08;1.12;99.99
68251;DHT22;55066;51.560;4.642;2024-01-15T02:38:33;1.17;99.99
68251;DHT22;55066;51.560;4.642;2024-01-15T02:40:59;1.01;99.99
68251;DHT22;55066;51.560;4.642;2024-01-15T02:43:24;1.09;99.99
68251;DHT22;55066;51.560;4.642;2024-01-15T02:45:50;1.05;99.99
68251;DHT22;55066;51.560;4.642;2024-01-15T02:48:16;1.12;99.99
68251;DHT22;55066;51.560;4.642;2024-01-15T02:50:41;1.08;99.99
68251;DHT22;55066;51.560;4.642;2024-01-15T02:53:06;1.08;99.99
68251;DHT22;55066;51.560;4.642;2024-01-15T02:55:32;1.11;99.99
68251;DHT22;55066;51.560;4.642;2024-01-15T02:57:57;1.19;99.99
68251;DHT22;55066;51.560;4.642;2024-01-15T03:00:23;1.17;99.99
68251;DHT22;55066;51.560;4.642;2024-01-15T03:02:50;1.31;99.99
68251;DHT22;55066;51.560;4.642;2024-01-15T03:05:16;1.42;99.99
68251;DHT22;55066;51.560;4.642;2024-01-15T03:07:42;1.34;99.99
68251;DHT22;55066;51.560;4.642;2024-01-15T03:10:08;1.21;99.99
68251;DHT22;55066;51.560;4.642;2024-01-15T03:12:33;1.15;99.99
68251;DHT22;55066;51.560;4.642;2024-01-15T03:14:59;1.05;99.99
68251;DHT22;55066;51.560;4.642;2024-01-15T03:17:24;1.07;99.99
68251;DHT22;55066;51.560;4.642;2024-01-15T03:19:50;1.14;99.99
68251;DHT22;55066;51.560;4.642;2024-01-15T03:22:16;1.21;99.99
68251;DHT22;55066;51.560;4.642;2024-01-15T03:24:42;1.02;99.99
68251;DHT22;55066;51.560;4.642;2024-01-15T03:27:07;0.98;99.99
68251;DHT22;55066;51.560;4.642;2024-01-15T03:29:33;0.95;99.99
68251;DHT22;55066;51.560;4.642;2024-01-15T03:31:58;0.92;99.99
68251;DHT22;55066;51.560;4.642;2024-01-15T03:34:24;0.91;99.99
68251;DHT22;55066;51.560;4.642;2024-01-15T03:36:49;0.94;99.99
68251;DHT22;55066;51.560;4.642;2024-01-15T03:39:15;0.90;99.99
68251;DHT22;55066;51.560;4.642;2024-01-15T03:41:40;0.88;99.99
68251;DHT22;55066;51.560;4.642;2024-01-15T03:44:06;0.83;99.99
68251;DHT22;55066;51.560;4.642;2024-01-15T03:46:32;0.74;99.99
68251;DHT22;55066;51.560;4.642;2024-01-15T03:48:57;0.74;99.99
68251;DHT22;55066;51.560;4.642;2024-01-15T03:51:23;0.69;99.99
68251;DHT22;55066;51.560;4.642;2024-01-15T03:53:48;0.54;99.99
68251;DHT22;55066;51.560;4.642;2024-01-15T03:56:14;0.46;99.99
68251;DHT22;55066;51.560;4.642;2024-01-15T03:58:39;0.35;99.99
68251;DHT22;55066;51.560;4.642;2024-01-15T04:01:08;0.32;99.99
68251;DHT22;55066;51.560;4.642;2024-01-15T04:03:35;0.29;99.99
68251;DHT22;55066;51.560;4.642;2024-01-15T04:06:00;0.26;99.99
68251;DHT22;55066;51.560;4.642;2024-01-15T04:08:25;0.22;99.99
68251;DHT22;55066;51.560;4.642;2024-01-15T04:10:51;0.16;99.99
68251;DHT22;55066;51.560;4.642;2024-01-15T04:13:17;0.12;99.99
68251;DHT22;55066;51.560;4.642;2024-01-15T04:15:43;0.09;99.99
68251;DHT22;55066;51.560;4.642;2024-01-15T04:18:08;0.14;99.99
68251;DHT22;55066;51.560;4.642;2024-01-15T04:20:34;0.14;99.99
68251;DHT22;55066;51.560;4.642;2024-01-15T04:22:59;0.18;99.99
68251;DHT22;55066;51.560;4.642;2024-01-15T04:25:24;0.18;99.99
68251;DHT22;55066;51.560;4.642;2024-01-15T04:27:50;0.25;99.99
68251;DHT22;55066;51.560;4.642;2024-01-15T04:30:15;0.32;99.99
68251;DHT22;55066;51.560;4.642;2024-01-15T04:32:41;0.36;99.99
68251;DHT22;55066;51.560;4.642;2024-01-15T04:35:06;0.36;99.99
68251;DHT22;55066;51.560;4.642;2024-01-15T04:37:32;0.36;99.99
68251;DHT22;55066;51.560;4.642;2024-01-15T04:39:57;0.38;99.99
68251;DHT22;55066;51.560;4.642;2024-01-15T04:42:23;0.39;99.99
68251;DHT22;55066;51.560;4.642;2024-01-15T04:44:49;0.41;99.99
68251;DHT22;55066;51.560;4.642;2024-01-15T04:47:14;0.49;99.99
68251;DHT22;55066;51.560;4.642;2024-01-15T04:49:40;0.71;99.99
68251;DHT22;55066;51.560;4.642;2024-01-15T04:52:05;0.85;99.99
68251;DHT22;55066;51.560;4.642;2024-01-15T04:54:30;0.88;99.99
68251;DHT22;55066;51.560;4.642;2024-01-15T04:56:56;1.05;99.99
68251;DHT22;55066;51.560;4.642;2024-01-15T04:59:21;1.07;99.99
68251;DHT22;55066;51.560;4.642;2024-01-15T05:01:47;0.95;99.99
68251;DHT22;55066;51.560;4.642;2024-01-15T05:04:14;1.18;99.99
68251;DHT22;55066;51.560;4.642;2024-01-15T05:06:39;1.18;99.99
68251;DHT22;55066;51.560;4.642;2024-01-15T05:09:05;1.18;99.99
68251;DHT22;55066;51.560;4.642;2024-01-15T05:11:31;1.08;99.99
68251;DHT22;55066;51.560;4.642;2024-01-15T05:13:56;1.05;99.99
68251;DHT22;55066;51.560;4.642;2024-01-15T05:16:22;1.11;99.99
68251;DHT22;55066;51.560;4.642;2024-01-15T05:18:47;1.07;99.99
68251;DHT22;55066;51.560;4.642;2024-01-15T05:21:13;1.08;99.99
68251;DHT22;55066;51.560;4.642;2024-01-15T05:23:38;1.11;99.99
68251;DHT22;55066;51.560;4.642;2024-01-15T05:26:04;1.08;99.99
68251;DHT22;55066;51.560;4.642;2024-01-15T05:28:29;1.11;99.99
68251;DHT22;55066;51.560;4.642;2024-01-15T05:30:55;1.00;99.99
68251;DHT22;55066;51.560;4.642;2024-01-15T05:33:22;0.95;99.99
68251;DHT22;55066;51.560;4.642;2024-01-15T05:35:48;0.98;99.99
68251;DHT22;55066;51.560;4.642;2024-01-15T05:38:15;0.80;99.99
68251;DHT22;55066;51.560;4.642;2024-01-15T05:40:41;0.74;99.99
68251;DHT22;55066;51.560;4.642;2024-01-15T05:43:06;0.79;99.99
68251;DHT22;55066;51.560;4.642;2024-01-15T05:45:34;0.69;99.99
68251;DHT22;55066;51.560;4.642;2024-01-15T05:48:00;0.76;99.99
68251;DHT22;55066;51.560;4.642;2024-01-15T05:50:25;0.79;99.99
68251;DHT22;55066;51.560;4.642;2024-01-15T05:52:51;0.70;99.99
68251;DHT22;55066;51.560;4.642;2024-01-15T05:55:17;0.80;99.99
68251;DHT22;55066;51.560;4.642;2024-01-15T05:57:44;0.81;99.99
68251;DHT22;55066;51.560;4.642;2024-01-15T06:00:10;0.79;99.99
68251;DHT22;55066;51.560;4.642;2024-01-15T06:02:37;0.84;99.99
68251;DHT22;55066;51.560;4.642;2024-01-15T06:05:03;0.84;99.99
68251;DHT22;55066;51.560;4.642;2024-01-15T06:07:29;0.81;99.99
68251;DHT22;55066;51.560;4.642;2024-01-15T06:09:54;0.80;99.99
68251;DHT22;55066;51.560;4.642;2024-01-15T06:12:22;0.71;99.99
68251;DHT22;55066;51.560;4.642;2024-01-15T06:14:47;0.70;99.99
68251;DHT22;55066;51.560;4.642;2024-01-15T06:17:13;0.67;99.99
68251;DHT22;55066;51.560;4.642;2024-01-15T06:19:38;0.63;99.99
68251;DHT22;55066;51.560;4.642;2024-01-15T06:22:04;0.67;99.99
68251;DHT22;55066;51.560;4.642;2024-01-15T06:24:29;0.71;99.99
68251;DHT22;55066;51.560;4.642;2024-01-15T06:26:55;0.80;99.99
68251;DHT22;55066;51.560;4.642;2024-01-15T06:29:20;0.84;99.99
68251;DHT22;55066;51.560;4.642;2024-01-15T06:31:46;0.76;99.99
68251;DHT22;55066;51.560;4.642;2024-01-15T06:34:12;0.83;99.99
68251;DHT22;55066;51.560;4.642;2024-01-15T06:36:37;0.76;99.99
68251;DHT22;55066;51.560;4.642;2024-01-15T06:39:03;0.81;99.99
68251;DHT22;55066;51.560;4.642;2024-01-15T06:41:29;0.79;99.99
68251;DHT22;55066;51.560;4.642;2024-01-15T06:43:54;0.73;99.99
68251;DHT22;55066;51.560;4.642;2024-01-15T06:46:21;0.76;99.99
68251;DHT22;55066;51.560;4.642;2024-01-15T06:48:47;0.80;99.99
68251;DHT22;55066;51.560;4.642;2024-01-15T06:51:13;0.80;99.99
68251;DHT22;55066;51.560;4.642;2024-01-15T06:53:38;0.81;99.99
68251;DHT22;55066;51.560;4.642;2024-01-15T06:56:04;0.79;99.99
68251;DHT22;55066;51.560;4.642;2024-01-15T06:58:32;0.73;99.99
68251;DHT22;55066;51.560;4.642;2024-01-15T07:00:58;0.69;99.99
68251;DHT22;55066;51.560;4.642;2024-01-15T07:03:24;0.70;99.99
68251;DHT22;55066;51.560;4.642;2024-01-15T07:05:49;0.59;99.99
68251;DHT22;55066;51.560;4.642;2024-01-15T07:08:15;0.62;99.99
68251;DHT22;55066;51.560;4.642;2024-01-15T07:10:40;0.59;99.99
68251;DHT22;55066;51.560;4.642;2024-01-15T07:13:06;0.56;99.99
68251;DHT22;55066;51.560;4.642;2024-01-15T07:15:31;0.50;99.99
68251;DHT22;55066;51.560;4.642;2024-01-15T07:17:57;0.57;99.99
68251;DHT22;55066;51.560;4.642;2024-01-15T07:20:22;0.62;99.99
68251;DHT22;55066;51.560;4.642;2024-01-15T07:22:47;0.60;99.99
68251;DHT22;55066;51.560;4.642;2024-01-15T07:25:13;0.70;99.99
68251;DHT22;55066;51.560;4.642;2024-01-15T07:27:38;0.66;99.99
68251;DHT22;55066;51.560;4.642;2024-01-15T07:30:04;0.60;99.99
68251;DHT22;55066;51.560;4.642;2024-01-15T07:32:31;0.57;99.99
68251;DHT22;55066;51.560;4.642;2024-01-15T07:34:57;0.59;99.99
68251;DHT22;55066;51.560;4.642;2024-01-15T07:37:24;0.59;99.99
68251;DHT22;55066;51.560;4.642;2024-01-15T07:39:50;0.50;99.99
68251;DHT22;55066;51.560;4.642;2024-01-15T07:42:15;0.59;99.99
68251;DHT22;55066;51.560;4.642;2024-01-15T07:44:41;0.54;99.99
68251;DHT22;55066;51.560;4.642;2024-01-15T07:47:06;0.62;99.99
68251;DHT22;55066;51.560;4.642;2024-01-15T07:49:34;0.59;99.99
68251;DHT22;55066;51.560;4.642;2024-01-15T07:52:00;0.52;99.99
68251;DHT22;55066;51.560;4.642;2024-01-15T07:54:25;0.56;99.99
68251;DHT22;55066;51.560;4.642;2024-01-15T07:56:59;0.66;99.99
68251;DHT22;55066;51.560;4.642;2024-01-15T07:59:26;0.60;99.99
68251;DHT22;55066;51.560;4.642;2024-01-15T08:01:52;0.53;99.99
68251;DHT22;55066;51.560;4.642;2024-01-15T08:04:18;0.53;99.99
68251;DHT22;55066;51.560;4.642;2024-01-15T08:06:44;0.59;99.99
68251;DHT22;55066;51.560;4.642;2024-01-15T08:09:10;0.60;99.99
68251;DHT22;55066;51.560;4.642;2024-01-15T08:11:36;0.59;99.99
68251;DHT22;55066;51.560;4.642;2024-01-15T08:14:02;0.56;99.99
68251;DHT22;55066;51.560;4.642;2024-01-15T08:16:28;0.59;99.99
68251;DHT22;55066;51.560;4.642;2024-01-15T08:18:54;0.64;99.99
68251;DHT22;55066;51.560;4.642;2024-01-15T08:21:19;0.60;99.99
68251;DHT22;55066;51.560;4.642;2024-01-15T08:23:45;0.57;99.99
68251;DHT22;55066;51.560;4.642;2024-01-15T08:26:10;0.56;99.99
68251;DHT22;55066;51.560;4.642;2024-01-15T08:28:36;0.59;99.99
68251;DHT22;55066;51.560;4.642;2024-01-15T08:31:02;0.57;99.99
68251;DHT22;55066;51.560;4.642;2024-01-15T08:33:28;0.67;99.99
68251;DHT22;55066;51.560;4.642;2024-01-15T08:35:54;0.71;99.99
68251;DHT22;55066;51.560;4.642;2024-01-15T08:38:20;0.73;99.99
68251;DHT22;55066;51.560;4.642;2024-01-15T08:40:45;0.77;99.99
68251;DHT22;55066;51.560;4.642;2024-01-15T08:43:11;0.80;99.99
68251;DHT22;55066;51.560;4.642;2024-01-15T08:45:36;0.80;99.99
68251;DHT22;55066;51.560;4.642;2024-01-15T08:48:01;0.76;99.99
68251;DHT22;55066;51.560;4.642;2024-01-15T08:50:27;0.83;99.99
68251;DHT22;55066;51.560;4.642;2024-01-15T08:52:53;0.87;99.99
68251;DHT22;55066;51.560;4.642;2024-01-15T08:55:18;0.94;99.99
68251;DHT22;55066;51.560;4.642;2024-01-15T08:57:44;0.95;99.99
68251;DHT22;55066;51.560;4.642;2024-01-15T09:00:10;0.91;99.99
68251;DHT22;55066;51.560;4.642;2024-01-15T09:02:35;0.74;99.99
68251;DHT22;55066;51.560;4.642;2024-01-15T09:05:01;0.74;99.99
68251;DHT22;55066;51.560;4.642;2024-01-15T09:07:26;0.84;99.99
68251;DHT22;55066;51.560;4.642;2024-01-15T09:09:53;0.92;99.99
68251;DHT22;55066;51.560;4.642;2024-01-15T09:12:19;0.98;99.99
68251;DHT22;55066;51.560;4.642;2024-01-15T09:14:46;1.05;99.99
68251;DHT22;55066;51.560;4.642;2024-01-15T09:17:12;1.15;99.99
68251;DHT22;55066;51.560;4.642;2024-01-15T09:19:38;1.21;99.99
68251;DHT22;55066;51.560;4.642;2024-01-15T09:22:07;1.32;99.99
68251;DHT22;55066;51.560;4.642;2024-01-15T09:24:32;1.38;99.99
68251;DHT22;55066;51.560;4.642;2024-01-15T09:26:58;1.56;99.99
68251;DHT22;55066;51.560;4.642;2024-01-15T09:29:23;1.88;99.99
68251;DHT22;55066;51.560;4.642;2024-01-15T09:31:50;2.15;99.99
68251;DHT22;55066;51.560;4.642;2024-01-15T09:34:16;1.70;99.99
68251;DHT22;55066;51.560;4.642;2024-01-15T09:36:41;1.24;99.99
68251;DHT22;55066;51.560;4.642;2024-01-15T09:39:08;0.98;99.99
68251;DHT22;55066;51.560;4.642;2024-01-15T09:41:37;0.74;99.99
68251;DHT22;55066;51.560;4.642;2024-01-15T09:44:03;0.76;99.99
68251;DHT22;55066;51.560;4.642;2024-01-15T09:46:34;0.79;99.99
68251;DHT22;55066;51.560;4.642;2024-01-15T09:49:00;0.83;99.99
68251;DHT22;55066;51.560;4.642;2024-01-15T09:51:29;0.83;99.99
68251;DHT22;55066;51.560;4.642;2024-01-15T09:53:57;0.91;99.99
68251;DHT22;55066;51.560;4.642;2024-01-15T09:56:22;1.21;99.99
68251;DHT22;55066;51.560;4.642;2024-01-15T09:58:48;1.38;99.99
68251;DHT22;55066;51.560;4.642;2024-01-15T10:01:14;1.24;99.99
68251;DHT22;55066;51.560;4.642;2024-01-15T10:03:40;1.02;99.99
68251;DHT22;55066;51.560;4.642;2024-01-15T10:06:07;0.91;99.99
68251;DHT22;55066;51.560;4.642;2024-01-15T10:08:36;0.74;99.99
68251;DHT22;55066;51.560;4.642;2024-01-15T10:11:02;0.80;99.99
68251;DHT22;55066;51.560;4.642;2024-01-15T10:13:30;0.80;99.99
68251;DHT22;55066;51.560;4.642;2024-01-15T10:15:55;0.85;99.99
68251;DHT22;55066;51.560;4.642;2024-01-15T10:18:21;0.88;99.99
68251;DHT22;55066;51.560;4.642;2024-01-15T10:20:47;1.05;99.99
68251;DHT22;55066;51.560;4.642;2024-01-15T10:23:14;1.29;99.99
68251;DHT22;55066;51.560;4.642;2024-01-15T10:25:41;1.57;99.99
68251;DHT22;55066;51.560;4.642;2024-01-15T10:28:07;1.50;99.99
68251;DHT22;55066;51.560;4.642;2024-01-15T10:30:33;1.47;99.99
68251;DHT22;55066;51.560;4.642;2024-01-15T10:33:00;1.55;99.99
68251;DHT22;55066;51.560;4.642;2024-01-15T10:35:30;1.55;99.99
68251;DHT22;55066;51.560;4.642;2024-01-15T10:37:56;1.59;99.99
68251;DHT22;55066;51.560;4.642;2024-01-15T10:40:21;1.67;99.99
68251;DHT22;55066;51.560;4.642;2024-01-15T10:42:47;1.53;99.99
68251;DHT22;55066;51.560;4.642;2024-01-15T10:45:16;1.29;99.99
68251;DHT22;55066;51.560;4.642;2024-01-15T10:47:42;1.31;99.99
68251;DHT22;55066;51.560;4.642;2024-01-15T10:50:09;1.24;99.99
68251;DHT22;55066;51.560;4.642;2024-01-15T10:52:39;1.21;99.99
68251;DHT22;55066;51.560;4.642;2024-01-15T10:55:07;1.36;99.99
68251;DHT22;55066;51.560;4.642;2024-01-15T10:57:37;1.40;99.99
68251;DHT22;55066;51.560;4.642;2024-01-15T11:00:04;1.47;99.99
68251;DHT22;55066;51.560;4.642;2024-01-15T11:02:35;1.70;99.99
68251;DHT22;55066;51.560;4.642;2024-01-15T11:05:01;1.84;99.99
68251;DHT22;55066;51.560;4.642;2024-01-15T11:07:27;2.08;99.99
68251;DHT22;55066;51.560;4.642;2024-01-15T11:09:52;2.38;99.99
68251;DHT22;55066;51.560;4.642;2024-01-15T11:12:18;2.60;99.99
68251;DHT22;55066;51.560;4.642;2024-01-15T11:14:49;2.31;99.99
68251;DHT22;55066;51.560;4.642;2024-01-15T11:17:15;1.73;99.99
68251;DHT22;55066;51.560;4.642;2024-01-15T11:22:46;1.05;99.99
68251;DHT22;55066;51.560;4.642;2024-01-15T11:25:03;0.85;99.99
68251;DHT22;55066;51.560;4.642;2024-01-15T11:27:43;0.77;99.99
68251;DHT22;55066;51.560;4.642;2024-01-15T11:30:10;0.70;99.99
68251;DHT22;55066;51.560;4.642;2024-01-15T11:32:39;0.92;99.99
68251;DHT22;55066;51.560;4.642;2024-01-15T11:35:08;1.12;99.99
68251;DHT22;55066;51.560;4.642;2024-01-15T11:42:59;0.98;99.99
68251;DHT22;55066;51.560;4.642;2024-01-15T11:45:25;0.91;99.99
68251;DHT22;55066;51.560;4.642;2024-01-15T11:48:12;0.79;99.99
68251;DHT22;55066;51.560;4.642;2024-01-15T11:50:42;0.85;99.99
68251;DHT22;55066;51.560;4.642;2024-01-15T11:53:36;0.88;99.99
68251;DHT22;55066;51.560;4.642;2024-01-15T11:56:03;0.81;99.99
68251;DHT22;55066;51.560;4.642;2024-01-15T11:58:31;0.90;99.99
68251;DHT22;55066;51.560;4.642;2024-01-15T12:00:57;0.98;99.99
68251;DHT22;55066;51.560;4.642;2024-01-15T12:03:24;1.08;99.99
68251;DHT22;55066;51.560;4.642;2024-01-15T12:05:51;1.18;99.99
68251;DHT22;55066;51.560;4.642;2024-01-15T12:08:23;1.57;99.99
68251;DHT22;55066;51.560;4.642;2024-01-15T12:10:49;1.76;99.99
68251;DHT22;55066;51.560;4.642;2024-01-15T12:13:15;2.15;99.99
68251;DHT22;55066;51.560;4.642;2024-01-15T12:15:42;1.97;99.99
68251;DHT22;55066;51.560;4.642;2024-01-15T12:18:10;1.63;99.99
68251;DHT22;55066;51.560;4.642;2024-01-15T12:20:36;1.52;99.99
68251;DHT22;55066;51.560;4.642;2024-01-15T12:23:02;1.60;99.99
68251;DHT22;55066;51.560;4.642;2024-01-15T12:25:29;1.46;99.99
68251;DHT22;55066;51.560;4.642;2024-01-15T12:27:55;1.36;99.99
68251;DHT22;55066;51.560;4.642;2024-01-15T12:30:20;1.25;99.99
68251;DHT22;55066;51.560;4.642;2024-01-15T12:32:47;1.18;99.99
68251;DHT22;55066;51.560;4.642;2024-01-15T12:35:13;1.35;99.99
68251;DHT22;55066;51.560;4.642;2024-01-15T12:37:39;1.73;99.99
68251;DHT22;55066;51.560;4.642;2024-01-15T12:40:06;2.35;99.99
68251;DHT22;55066;51.560;4.642;2024-01-15T12:42:36;2.80;99.99
68251;DHT22;55066;51.560;4.642;2024-01-15T12:45:02;2.08;99.99
68251;DHT22;55066;51.560;4.642;2024-01-15T12:47:32;1.74;99.99
68251;DHT22;55066;51.560;4.642;2024-01-15T12:49:58;1.68;99.99
68251;DHT22;55066;51.560;4.642;2024-01-15T12:52:27;1.68;99.99
68251;DHT22;55066;51.560;4.642;2024-01-15T12:54:53;1.68;99.99
68251;DHT22;55066;51.560;4.642;2024-01-15T12:57:19;1.71;99.99
68251;DHT22;55066;51.560;4.642;2024-01-15T12:59:44;1.77;99.99
68251;DHT22;55066;51.560;4.642;2024-01-15T13:02:11;1.78;99.99
68251;DHT22;55066;51.560;4.642;2024-01-15T13:04:37;1.80;99.99
68251;DHT22;55066;51.560;4.642;2024-01-15T13:07:02;1.62;99.99
68251;DHT22;55066;51.560;4.642;2024-01-15T13:09:28;1.36;99.99
68251;DHT22;55066;51.560;4.642;2024-01-15T13:11:55;1.35;99.99
68251;DHT22;55066;51.560;4.642;2024-01-15T13:14:20;1.31;99.99
68251;DHT22;55066;51.560;4.642;2024-01-15T13:16:46;1.42;99.99
68251;DHT22;55066;51.560;4.642;2024-01-15T13:19:11;1.53;99.99
68251;DHT22;55066;51.560;4.642;2024-01-15T13:21:39;1.63;99.99
68251;DHT22;55066;51.560;4.642;2024-01-15T13:24:05;1.91;99.99
68251;DHT22;55066;51.560;4.642;2024-01-15T13:26:32;2.38;99.99
68251;DHT22;55066;51.560;4.642;2024-01-15T13:29:01;2.35;99.99
68251;DHT22;55066;51.560;4.642;2024-01-15T13:31:27;1.98;99.99
68251;DHT22;55066;51.560;4.642;2024-01-15T13:33:53;1.77;99.99
68251;DHT22;55066;51.560;4.642;2024-01-15T13:36:18;1.73;99.99
68251;DHT22;55066;51.560;4.642;2024-01-15T13:38:46;1.78;99.99
68251;DHT22;55066;51.560;4.642;2024-01-15T13:41:12;1.70;99.99
68251;DHT22;55066;51.560;4.642;2024-01-15T13:43:37;1.66;99.99
68251;DHT22;55066;51.560;4.642;2024-01-15T13:46:03;1.63;99.99
68251;DHT22;55066;51.560;4.642;2024-01-15T13:48:30;1.62;99.99
68251;DHT22;55066;51.560;4.642;2024-01-15T13:50:57;1.60;99.99
68251;DHT22;55066;51.560;4.642;2024-01-15T13:53:22;1.67;99.99
68251;DHT22;55066;51.560;4.642;2024-01-15T13:55:47;1.63;99.99
68251;DHT22;55066;51.560;4.642;2024-01-15T13:58:13;1.50;99.99
68251;DHT22;55066;51.560;4.642;2024-01-15T14:00:38;1.55;99.99
68251;DHT22;55066;51.560;4.642;2024-01-15T14:03:04;1.63;99.99
68251;DHT22;55066;51.560;4.642;2024-01-15T14:05:30;1.59;99.99
68251;DHT22;55066;51.560;4.642;2024-01-15T14:07:55;1.52;99.99
68251;DHT22;55066;51.560;4.642;2024-01-15T14:10:21;1.40;99.99
68251;DHT22;55066;51.560;4.642;2024-01-15T14:12:46;1.36;99.99
68251;DHT22;55066;51.560;4.642;2024-01-15T14:15:12;1.21;99.99
68251;DHT22;55066;51.560;4.642;2024-01-15T14:17:38;1.28;99.99
68251;DHT22;55066;51.560;4.642;2024-01-15T14:20:04;1.27;99.99
68251;DHT22;55066;51.560;4.642;2024-01-15T14:22:30;1.22;99.99
68251;DHT22;55066;51.560;4.642;2024-01-15T14:24:56;1.21;99.99
68251;DHT22;55066;51.560;4.642;2024-01-15T14:27:21;1.19;99.99
68251;DHT22;55066;51.560;4.642;2024-01-15T14:29:46;1.28;99.99
68251;DHT22;55066;51.560;4.642;2024-01-15T14:32:12;1.29;99.99
68251;DHT22;55066;51.560;4.642;2024-01-15T14:34:37;1.45;99.99
68251;DHT22;55066;51.560;4.642;2024-01-15T14:37:03;1.55;99.99
68251;DHT22;55066;51.560;4.642;2024-01-15T14:39:28;1.56;99.99
68251;DHT22;55066;51.560;4.642;2024-01-15T14:41:53;1.53;99.99
68251;DHT22;55066;51.560;4.642;2024-01-15T14:44:19;1.46;99.99
68251;DHT22;55066;51.560;4.642;2024-01-15T14:46:45;1.28;99.99
68251;DHT22;55066;51.560;4.642;2024-01-15T14:49:11;1.28;99.99
68251;DHT22;55066;51.560;4.642;2024-01-15T14:51:36;1.25;99.99
68251;DHT22;55066;51.560;4.642;2024-01-15T14:54:02;1.40;99.99
68251;DHT22;55066;51.560;4.642;2024-01-15T14:56:27;1.87;99.99
68251;DHT22;55066;51.560;4.642;2024-01-15T14:58:54;2.15;99.99
68251;DHT22;55066;51.560;4.642;2024-01-15T15:01:19;2.11;99.99
68251;DHT22;55066;51.560;4.642;2024-01-15T15:03:45;2.00;99.99
68251;DHT22;55066;51.560;4.642;2024-01-15T15:06:10;1.70;99.99
68251;DHT22;55066;51.560;4.642;2024-01-15T15:08:37;1.63;99.99
68251;DHT22;55066;51.560;4.642;2024-01-15T15:11:03;1.52;99.99
68251;DHT22;55066;51.560;4.642;2024-01-15T15:13:29;1.36;99.99
68251;DHT22;55066;51.560;4.642;2024-01-15T15:15:55;1.24;99.99
68251;DHT22;55066;51.560;4.642;2024-01-15T15:18:21;1.25;99.99
68251;DHT22;55066;51.560;4.642;2024-01-15T15:20:50;1.15;99.99
68251;DHT22;55066;51.560;4.642;2024-01-15T15:23:16;1.21;99.99
68251;DHT22;55066;51.560;4.642;2024-01-15T15:25:42;1.38;99.99
68251;DHT22;55066;51.560;4.642;2024-01-15T15:28:08;1.40;99.99
68251;DHT22;55066;51.560;4.642;2024-01-15T15:30:34;1.50;99.99
68251;DHT22;55066;51.560;4.642;2024-01-15T15:32:59;1.46;99.99
68251;DHT22;55066;51.560;4.642;2024-01-15T15:35:25;1.45;99.99
68251;DHT22;55066;51.560;4.642;2024-01-15T15:37:50;1.45;99.99
68251;DHT22;55066;51.560;4.642;2024-01-15T15:40:16;1.40;99.99
68251;DHT22;55066;51.560;4.642;2024-01-15T15:42:42;1.27;99.99
68251;DHT22;55066;51.560;4.642;2024-01-15T15:45:09;1.15;99.99